Time;durP1;ratioP1;P1;durP2;ratioP2;P2;SDS_P1;SDS_P2;PMS_P1;PMS_P2;Temp;Humidity;BMP_temperature;BMP_pressure;BME280_temperature;BME280_humidity;BME280_pressure;Samples;Min_cycle;Max_cycle;Signal;HPM_P1;HPM_P2
2022/08/23 00:00:40;;;;;;;;;0.00;0.00;;;;;;;;6319402;22;45391;-94
2022/08/23 00:03:06;;;;;;;;;1.00;1.00;;;;;;;;6319482;22;45457;-94
2022/08/23 00:05:31;;;;;;;;;0.00;0.00;;;;;;;;6318163;22;47784;-95
2022/08/23 00:07:59;;;;;;;;;0.33;0.33;;;;;;;;6319282;22;45419;-95
2022/08/23 00:10:26;;;;;;;;;1.00;1.00;;;;;;;;6318539;22;45269;-94
2022/08/23 00:12:52;;;;;;;;;0.00;0.00;;;;;;;;6318507;22;45423;-94
2022/08/23 00:15:19;;;;;;;;;0.00;0.00;;;;;;;;6318939;22;46914;-94
2022/08/23 00:17:45;;;;;;;;;0.33;0.33;;;;;;;;6318009;22;45447;-94
2022/08/23 00:20:12;;;;;;;;;0.00;0.00;;;;;;;;6309109;22;45506;-95
2022/08/23 00:22:38;;;;;;;;;1.00;1.00;;;;;;;;6309492;22;45337;-96
2022/08/23 00:25:08;;;;;;;;;0.00;0.00;;;;;;;;6308142;22;46942;-96
2022/08/23 00:27:42;;;;;;;;;1.00;1.00;;;;;;;;6308079;22;45816;-94
2022/08/23 00:30:08;;;;;;;;;0.67;0.00;;;;;;;;6309038;22;45403;-95
2022/08/23 00:32:34;;;;;;;;;0.00;0.00;;;;;;;;6308946;22;45468;-94
2022/08/23 00:35:03;;;;;;;;;0.67;0.00;;;;;;;;6309142;22;47116;-95
2022/08/23 00:37:31;;;;;;;;;0.33;0.33;;;;;;;;6309102;22;45667;-95
2022/08/23 00:39:57;;;;;;;;;0.00;0.00;;;;;;;;6309138;22;45360;-94
2022/08/23 00:48:02;;;;;;;;;1.00;1.00;;;;;;;;6337109;22;45432;-95
2022/08/23 00:50:30;;;;;;;;;1.33;0.00;;;;;;;;6309091;22;45572;-95
2022/08/23 00:53:10;;;;;;;;;1.00;1.00;;;;;;;;6308882;22;45538;-95
2022/08/23 00:55:36;;;;;;;;;4.00;1.00;;;;;;;;6308655;22;47142;-94
2022/08/23 00:58:02;;;;;;;;;0.67;0.67;;;;;;;;6308782;22;45235;-94
2022/08/23 01:00:28;;;;;;;;;0.67;0.67;;;;;;;;6308927;22;45475;-94
2022/08/23 01:02:54;;;;;;;;;2.00;1.33;;;;;;;;6309259;22;45293;-94
2022/08/23 01:05:21;;;;;;;;;1.00;1.00;;;;;;;;6308519;22;48170;-95
2022/08/23 01:07:54;;;;;;;;;1.00;1.00;;;;;;;;6307950;22;45403;-95
2022/08/23 01:10:37;;;;;;;;;1.00;0.00;;;;;;;;6309118;22;45371;-94
2022/08/23 01:13:14;;;;;;;;;1.00;1.00;;;;;;;;6309075;22;45567;-94
2022/08/23 01:15:46;;;;;;;;;0.67;0.00;;;;;;;;6308798;22;47185;-95
2022/08/23 01:18:13;;;;;;;;;0.67;0.67;;;;;;;;6308106;22;46029;-94
2022/08/23 01:20:57;;;;;;;;;1.33;1.00;;;;;;;;6308101;22;45411;-95
2022/08/23 01:23:35;;;;;;;;;1.00;1.00;;;;;;;;6308675;22;45422;-94
2022/08/23 01:26:01;;;;;;;;;1.00;1.00;;;;;;;;6308276;22;48138;-94
2022/08/23 01:28:26;;;;;;;;;0.33;0.33;;;;;;;;6308627;22;45348;-95
2022/08/23 01:30:52;;;;;;;;;0.00;0.00;;;;;;;;6308888;22;45337;-94
2022/08/23 01:33:18;;;;;;;;;0.33;0.33;;;;;;;;6308800;22;45458;-95
2022/08/23 01:35:46;;;;;;;;;2.33;2.00;;;;;;;;6307999;22;47080;-95
2022/08/23 01:38:12;;;;;;;;;2.33;1.33;;;;;;;;6308359;22;45602;-95
2022/08/23 01:40:37;;;;;;;;;1.00;1.00;;;;;;;;6308619;22;45474;-94
2022/08/23 01:43:03;;;;;;;;;0.33;0.00;;;;;;;;6316265;22;45436;-95
2022/08/23 01:45:29;;;;;;;;;1.33;1.00;;;;;;;;6318456;22;46940;-94
2022/08/23 01:47:54;;;;;;;;;0.67;0.67;;;;;;;;6318591;22;45343;-95
2022/08/23 01:50:19;;;;;;;;;0.67;0.67;;;;;;;;6346229;22;44731;-94
2022/08/23 01:52:45;;;;;;;;;1.00;1.00;;;;;;;;6317709;22;45430;-94
2022/08/23 01:55:10;;;;;;;;;0.00;0.00;;;;;;;;6316817;22;48042;-94
2022/08/23 01:57:36;;;;;;;;;1.00;1.00;;;;;;;;6316812;22;45449;-94
2022/08/23 02:00:03;;;;;;;;;1.00;0.33;;;;;;;;6316613;22;45498;-95
2022/08/23 02:02:28;;;;;;;;;0.00;0.00;;;;;;;;6317069;22;45268;-94
2022/08/23 02:04:54;;;;;;;;;0.00;0.00;;;;;;;;6316570;22;48031;-94
2022/08/23 02:07:19;;;;;;;;;0.00;0.00;;;;;;;;6315743;22;45733;-94
2022/08/23 02:09:44;;;;;;;;;0.00;0.00;;;;;;;;6308354;22;45416;-94
2022/08/23 02:12:10;;;;;;;;;0.00;0.00;;;;;;;;6307762;22;45359;-94
2022/08/23 02:14:36;;;;;;;;;0.33;0.33;;;;;;;;6308206;22;47026;-93
2022/08/23 02:17:01;;;;;;;;;0.00;0.00;;;;;;;;6307529;22;45579;-94
2022/08/23 02:19:27;;;;;;;;;0.00;0.00;;;;;;;;6308134;22;45450;-95
2022/08/23 02:21:52;;;;;;;;;0.00;0.00;;;;;;;;6307203;22;45404;-94
2022/08/23 02:24:20;;;;;;;;;0.00;0.00;;;;;;;;6307641;22;47013;-95
2022/08/23 02:26:47;;;;;;;;;0.00;0.00;;;;;;;;6307968;22;45366;-95
2022/08/23 02:29:13;;;;;;;;;0.00;0.00;;;;;;;;6307932;22;45350;-93
2022/08/23 02:31:38;;;;;;;;;0.00;0.00;;;;;;;;6309274;22;45377;-94
2022/08/23 02:34:04;;;;;;;;;0.33;0.33;;;;;;;;6308759;22;47948;-94
2022/08/23 02:36:30;;;;;;;;;0.00;0.00;;;;;;;;6308663;22;45324;-94
2022/08/23 02:38:56;;;;;;;;;0.00;0.00;;;;;;;;6309157;22;45652;-94
2022/08/23 02:41:21;;;;;;;;;0.00;0.00;;;;;;;;6309470;22;45379;-94
2022/08/23 02:43:49;;;;;;;;;0.67;0.00;;;;;;;;6309158;22;47957;-94
2022/08/23 02:46:14;;;;;;;;;0.00;0.00;;;;;;;;6309308;22;45415;-94
2022/08/23 02:48:39;;;;;;;;;0.00;0.00;;;;;;;;6308758;22;45439;-93
2022/08/23 02:51:06;;;;;;;;;0.67;0.67;;;;;;;;6336835;22;45323;-93
2022/08/23 02:53:32;;;;;;;;;0.00;0.00;;;;;;;;6309034;22;47292;-95
2022/08/23 02:55:57;;;;;;;;;0.33;0.33;;;;;;;;6309286;22;45272;-94
2022/08/23 02:58:23;;;;;;;;;0.00;0.00;;;;;;;;6309682;22;45237;-95
2022/08/23 03:00:49;;;;;;;;;0.00;0.00;;;;;;;;6309348;22;45571;-94
2022/08/23 03:03:14;;;;;;;;;0.00;0.00;;;;;;;;6308963;22;48583;-94
2022/08/23 03:05:40;;;;;;;;;0.00;0.00;;;;;;;;6309130;22;45426;-95
2022/08/23 03:08:05;;;;;;;;;0.00;0.00;;;;;;;;6309317;22;45329;-94
2022/08/23 03:10:30;;;;;;;;;0.00;0.00;;;;;;;;6308877;22;45555;-96
2022/08/23 03:12:56;;;;;;;;;0.00;0.00;;;;;;;;6308765;22;47100;-94
2022/08/23 03:15:21;;;;;;;;;0.00;0.00;;;;;;;;6309075;22;45415;-93
2022/08/23 03:17:47;;;;;;;;;0.00;0.00;;;;;;;;6309401;22;45381;-94
2022/08/23 03:20:12;;;;;;;;;0.00;0.00;;;;;;;;6308919;22;45458;-94
2022/08/23 03:22:38;;;;;;;;;0.00;0.00;;;;;;;;6308953;22;48533;-94
2022/08/23 03:25:04;;;;;;;;;0.33;0.33;;;;;;;;6309082;22;45492;-95
2022/08/23 03:27:30;;;;;;;;;2.00;2.00;;;;;;;;6308671;22;45672;-94
2022/08/23 03:29:55;;;;;;;;;0.67;0.33;;;;;;;;6310696;22;45350;-94
2022/08/23 03:32:21;;;;;;;;;0.33;0.33;;;;;;;;6317670;22;47161;-94
2022/08/23 03:34:46;;;;;;;;;0.33;0.33;;;;;;;;6318832;22;45431;-94
2022/08/23 03:37:11;;;;;;;;;0.00;0.00;;;;;;;;6319324;22;45371;-94
2022/08/23 03:39:36;;;;;;;;;0.00;0.00;;;;;;;;6318995;22;45305;-94
2022/08/23 03:42:02;;;;;;;;;1.00;1.00;;;;;;;;6319177;22;47321;-94
2022/08/23 03:44:27;;;;;;;;;1.67;0.67;;;;;;;;6319372;22;45210;-95
2022/08/23 03:46:53;;;;;;;;;0.33;0.33;;;;;;;;6319092;22;45324;-94
2022/08/23 03:49:18;;;;;;;;;0.33;0.00;;;;;;;;6318973;22;45352;-95
2022/08/23 03:51:43;;;;;;;;;0.00;0.00;;;;;;;;6318911;22;46957;-94
2022/08/23 03:54:14;;;;;;;;;0.33;0.33;;;;;;;;6319108;22;45372;-95
2022/08/23 03:56:49;;;;;;;;;1.00;1.00;;;;;;;;6319111;22;45612;-94
2022/08/23 03:59:14;;;;;;;;;0.00;0.00;;;;;;;;6315004;22;45407;-93
2022/08/23 04:01:39;;;;;;;;;1.00;1.00;;;;;;;;6310663;22;47003;-95
2022/08/23 04:04:04;;;;;;;;;1.00;1.00;;;;;;;;6308352;22;45343;-95
2022/08/23 04:06:31;;;;;;;;;1.67;0.00;;;;;;;;6309134;22;45509;-94
2022/08/23 04:08:57;;;;;;;;;2.00;1.00;;;;;;;;6309766;22;45520;-93
2022/08/23 04:11:22;;;;;;;;;1.67;0.67;;;;;;;;6308630;22;46916;-95
2022/08/23 04:13:48;;;;;;;;;0.00;0.00;;;;;;;;6309332;22;45284;-94
2022/08/23 04:16:13;;;;;;;;;0.67;0.67;;;;;;;;6309141;22;45387;-95
2022/08/23 04:18:39;;;;;;;;;2.00;1.67;;;;;;;;6337602;22;45699;-94
2022/08/23 04:21:09;;;;;;;;;1.00;1.00;;;;;;;;6336893;22;45257;-95
2022/08/23 04:23:34;;;;;;;;;1.00;1.00;;;;;;;;6309101;22;45549;-95
2022/08/23 04:25:59;;;;;;;;;1.33;1.33;;;;;;;;6309037;22;45417;-93
2022/08/23 04:28:25;;;;;;;;;0.67;0.67;;;;;;;;6309028;22;45833;-95
2022/08/23 04:30:50;;;;;;;;;1.00;1.00;;;;;;;;6308412;22;46928;-95
2022/08/23 04:33:17;;;;;;;;;1.00;1.00;;;;;;;;6308454;22;45526;-95
2022/08/23 04:35:42;;;;;;;;;0.33;0.33;;;;;;;;6308734;22;45396;-94
2022/08/23 04:38:08;;;;;;;;;1.00;1.00;;;;;;;;6309130;22;45240;-94
2022/08/23 04:43:17;;;;;;;;;1.00;1.00;;;;;;;;6337202;22;45778;-94
2022/08/23 04:45:42;;;;;;;;;2.00;1.67;;;;;;;;6308581;22;45278;-95
2022/08/23 04:48:08;;;;;;;;;0.00;0.00;;;;;;;;6308924;22;45274;-94
2022/08/23 04:50:34;;;;;;;;;1.00;1.00;;;;;;;;6308390;22;47430;-95
2022/08/23 04:52:59;;;;;;;;;1.00;1.00;;;;;;;;6336351;22;45143;-94
2022/08/23 04:55:24;;;;;;;;;1.00;1.00;;;;;;;;6308694;22;45260;-95
2022/08/23 04:57:49;;;;;;;;;0.67;0.67;;;;;;;;6308760;22;45258;-94
2022/08/23 05:00:15;;;;;;;;;2.00;2.00;;;;;;;;6307657;22;47122;-94
2022/08/23 05:02:45;;;;;;;;;1.67;1.67;;;;;;;;6308462;22;45422;-94
2022/08/23 05:05:10;;;;;;;;;2.67;1.00;;;;;;;;6308805;22;45337;-94
2022/08/23 05:07:36;;;;;;;;;2.00;2.00;;;;;;;;6308458;22;45375;-93
2022/08/23 05:10:02;;;;;;;;;2.00;2.00;;;;;;;;6308575;22;48029;-94
2022/08/23 05:12:28;;;;;;;;;1.00;1.00;;;;;;;;6308258;22;45208;-93
2022/08/23 05:14:53;;;;;;;;;1.00;1.00;;;;;;;;6308472;22;45191;-94
2022/08/23 05:17:19;;;;;;;;;1.67;1.67;;;;;;;;6309119;22;45549;-94
2022/08/23 05:19:44;;;;;;;;;1.00;1.00;;;;;;;;6345729;22;45603;-95
2022/08/23 05:22:09;;;;;;;;;1.00;1.00;;;;;;;;6318194;22;45438;-95
2022/08/23 05:24:34;;;;;;;;;1.00;1.00;;;;;;;;6318482;22;45438;-94
2022/08/23 05:27:02;;;;;;;;;2.00;2.00;;;;;;;;6318790;22;45376;-95
2022/08/23 05:29:27;;;;;;;;;2.00;2.00;;;;;;;;6318145;22;47141;-95
2022/08/23 05:31:53;;;;;;;;;1.33;1.33;;;;;;;;6318213;22;45478;-94
2022/08/23 05:34:18;;;;;;;;;1.67;1.67;;;;;;;;6318721;22;45431;-95
2022/08/23 05:36:47;;;;;;;;;3.67;2.33;;;;;;;;6318367;22;45408;-95
2022/08/23 05:39:13;;;;;;;;;2.00;2.00;;;;;;;;6318444;22;48314;-95
2022/08/23 05:41:39;;;;;;;;;2.00;2.00;;;;;;;;6314104;22;45262;-95
2022/08/23 05:44:04;;;;;;;;;2.33;2.33;;;;;;;;6308410;22;45153;-94
2022/08/23 05:46:30;;;;;;;;;4.00;3.00;;;;;;;;6314338;22;45441;-94
2022/08/23 05:48:55;;;;;;;;;1.00;1.00;;;;;;;;6309578;22;48057;-94
2022/08/23 05:51:24;;;;;;;;;2.00;2.00;;;;;;;;6307189;22;45557;-94
2022/08/23 05:53:53;;;;;;;;;1.00;1.00;;;;;;;;6308294;22;45418;-95
2022/08/23 05:56:28;;;;;;;;;2.00;2.00;;;;;;;;6307860;22;45525;-94
2022/08/23 05:58:56;;;;;;;;;2.00;2.00;;;;;;;;6307861;22;47292;-94
2022/08/23 06:01:21;;;;;;;;;2.00;2.00;;;;;;;;6308754;22;45622;-94
2022/08/23 06:03:47;;;;;;;;;3.67;2.00;;;;;;;;6309564;22;46075;-95
2022/08/23 06:06:14;;;;;;;;;2.00;2.00;;;;;;;;6309836;22;45519;-94
2022/08/23 06:08:40;;;;;;;;;2.33;1.33;;;;;;;;6309696;22;47095;-94
2022/08/23 06:11:07;;;;;;;;;2.00;2.00;;;;;;;;6308945;22;45616;-94
2022/08/23 06:13:33;;;;;;;;;2.00;2.00;;;;;;;;6309437;22;45365;-94
2022/08/23 06:15:59;;;;;;;;;4.33;2.33;;;;;;;;6309646;22;45352;-94
2022/08/23 06:18:27;;;;;;;;;0.67;0.67;;;;;;;;6309583;22;47145;-95
2022/08/23 06:20:59;;;;;;;;;0.67;0.67;;;;;;;;6309309;22;45253;-95
2022/08/23 06:23:28;;;;;;;;;2.00;2.00;;;;;;;;6311325;22;45377;-95
2022/08/23 06:25:56;;;;;;;;;2.33;2.00;;;;;;;;6325617;22;45513;-96
2022/08/23 06:28:21;;;;;;;;;3.00;3.00;;;;;;;;6335330;22;46006;-90
2022/08/23 06:30:47;;;;;;;;;1.00;1.00;;;;;;;;6335613;22;45311;-90
2022/08/23 06:33:12;;;;;;;;;2.33;2.33;;;;;;;;6338948;22;45212;-90
2022/08/23 06:35:37;;;;;;;;;2.67;2.33;;;;;;;;6306668;22;45294;-90
2022/08/23 06:38:03;;;;;;;;;2.33;2.33;;;;;;;;6307923;22;48159;-92
2022/08/23 06:40:28;;;;;;;;;2.00;2.00;;;;;;;;6335394;22;45281;-92
2022/08/23 06:42:53;;;;;;;;;1.00;1.00;;;;;;;;6307291;22;45559;-92
2022/08/23 06:45:19;;;;;;;;;1.67;1.67;;;;;;;;6335882;22;45509;-92
2022/08/23 06:47:44;;;;;;;;;2.33;1.33;;;;;;;;6335579;22;46947;-91
2022/08/23 06:50:09;;;;;;;;;3.33;2.00;;;;;;;;6335470;22;45379;-92
2022/08/23 06:52:35;;;;;;;;;1.33;1.33;;;;;;;;6307400;22;45543;-92
2022/08/23 06:55:01;;;;;;;;;2.67;2.33;;;;;;;;6307880;22;45801;-92
2022/08/23 06:57:28;;;;;;;;;1.00;1.00;;;;;;;;6306808;22;47473;-91
2022/08/23 06:59:53;;;;;;;;;1.33;1.33;;;;;;;;6307335;22;45355;-91
2022/08/23 07:02:18;;;;;;;;;4.67;1.33;;;;;;;;6335667;22;45383;-91
2022/08/23 07:04:43;;;;;;;;;1.00;0.33;;;;;;;;6336542;22;45339;-94
2022/08/23 07:07:09;;;;;;;;;1.33;1.33;;;;;;;;6307934;22;47971;-93
2022/08/23 07:09:35;;;;;;;;;2.00;1.33;;;;;;;;6307971;22;45503;-92
2022/08/23 07:12:00;;;;;;;;;2.00;2.00;;;;;;;;6335614;22;45424;-94
2022/08/23 07:14:26;;;;;;;;;1.33;1.33;;;;;;;;6307921;22;45462;-91
2022/08/23 07:16:53;;;;;;;;;3.00;3.00;;;;;;;;6307464;22;47449;-92
2022/08/23 07:19:19;;;;;;;;;2.33;1.67;;;;;;;;6310568;22;45812;-92
2022/08/23 07:21:45;;;;;;;;;4.33;4.33;;;;;;;;6338556;22;45347;-92
2022/08/23 07:24:10;;;;;;;;;1.00;1.00;;;;;;;;6339154;22;45197;-91
2022/08/23 07:26:36;;;;;;;;;1.00;1.00;;;;;;;;6313731;22;47919;-93
2022/08/23 07:29:08;;;;;;;;;3.00;1.00;;;;;;;;6320882;22;45176;-96
2022/08/23 07:31:37;;;;;;;;;1.00;1.00;;;;;;;;6285554;22;45469;-93
2022/08/23 07:34:03;;;;;;;;;4.00;1.00;;;;;;;;6313234;22;45273;-95
2022/08/23 07:36:32;;;;;;;;;0.67;0.67;;;;;;;;6307290;22;46956;-95
2022/08/23 07:38:58;;;;;;;;;0.67;0.33;;;;;;;;6340081;22;45305;-95
2022/08/23 07:41:24;;;;;;;;;1.00;1.00;;;;;;;;6308122;22;45313;-91
2022/08/23 07:43:49;;;;;;;;;1.00;1.00;;;;;;;;6336064;22;45233;-89
2022/08/23 07:46:15;;;;;;;;;1.67;1.67;;;;;;;;6334960;22;45719;-90
2022/08/23 07:48:40;;;;;;;;;2.00;2.00;;;;;;;;6335548;22;45647;-87
2022/08/23 07:51:06;;;;;;;;;1.00;1.00;;;;;;;;6334858;22;45281;-88
2022/08/23 07:53:32;;;;;;;;;1.00;1.00;;;;;;;;6335082;22;45297;-87
2022/08/23 07:55:57;;;;;;;;;0.00;0.00;;;;;;;;6333711;22;46347;-87
2022/08/23 07:58:23;;;;;;;;;2.00;2.00;;;;;;;;6307232;22;45768;-87
2022/08/23 08:00:49;;;;;;;;;4.67;4.67;;;;;;;;6336717;22;45325;-88
2022/08/23 08:03:15;;;;;;;;;1.00;1.00;;;;;;;;6306347;22;45816;-88
2022/08/23 08:05:41;;;;;;;;;5.00;3.33;;;;;;;;6305110;22;47309;-87
2022/08/23 08:08:07;;;;;;;;;2.00;2.00;;;;;;;;6333526;22;45386;-87
2022/08/23 08:10:35;;;;;;;;;1.00;1.00;;;;;;;;6334010;22;45280;-88
2022/08/23 08:13:00;;;;;;;;;2.00;2.00;;;;;;;;6305734;22;45381;-88
2022/08/23 08:15:26;;;;;;;;;2.00;2.00;;;;;;;;6305699;22;48462;-88
2022/08/23 08:17:51;;;;;;;;;2.33;2.33;;;;;;;;6302278;22;45827;-87
2022/08/23 08:20:20;;;;;;;;;2.00;2.00;;;;;;;;6303612;22;45738;-88
2022/08/23 08:22:46;;;;;;;;;2.00;1.00;;;;;;;;6305377;22;45435;-87
2022/08/23 08:25:12;;;;;;;;;3.33;2.00;;;;;;;;6304487;22;46087;-87
2022/08/23 08:27:37;;;;;;;;;1.67;1.67;;;;;;;;6332756;22;45431;-88
2022/08/23 08:30:03;;;;;;;;;1.00;1.00;;;;;;;;6304977;22;45769;-87
2022/08/23 08:32:28;;;;;;;;;1.00;1.00;;;;;;;;6305163;22;45253;-88
2022/08/23 08:34:53;;;;;;;;;1.00;1.00;;;;;;;;6332778;22;45304;-88
2022/08/23 08:37:18;;;;;;;;;4.67;3.00;;;;;;;;6305499;22;46002;-87
2022/08/23 08:39:46;;;;;;;;;7.67;6.00;;;;;;;;6305571;22;45338;-88
2022/08/23 08:42:15;;;;;;;;;2.00;2.00;;;;;;;;6306018;22;45374;-87
2022/08/23 08:44:46;;;;;;;;;6.33;5.00;;;;;;;;6306451;22;47581;-87
2022/08/23 08:47:18;;;;;;;;;2.33;2.33;;;;;;;;6306392;22;45348;-87
2022/08/23 08:49:46;;;;;;;;;3.00;2.00;;;;;;;;6334439;22;45682;-86
2022/08/23 08:52:25;;;;;;;;;3.00;2.00;;;;;;;;6305678;22;45306;-89
2022/08/23 08:55:08;;;;;;;;;2.00;2.00;;;;;;;;6306577;22;47336;-87
2022/08/23 08:57:37;;;;;;;;;1.33;1.00;;;;;;;;6305161;22;45540;-88
2022/08/23 09:00:07;;;;;;;;;1.33;1.33;;;;;;;;6332620;22;45392;-88
2022/08/23 09:02:33;;;;;;;;;1.00;1.00;;;;;;;;6306419;22;45350;-87
2022/08/23 09:05:01;;;;;;;;;2.00;2.00;;;;;;;;6306269;22;47313;-87
2022/08/23 09:07:30;;;;;;;;;1.67;1.67;;;;;;;;6334101;22;45377;-87
2022/08/23 09:10:01;;;;;;;;;1.00;1.00;;;;;;;;6305987;22;45297;-87
2022/08/23 09:12:48;;;;;;;;;3.33;3.00;;;;;;;;6304437;22;45669;-88
2022/08/23 09:15:28;;;;;;;;;3.00;1.33;;;;;;;;6333479;22;45453;-88
2022/08/23 09:17:55;;;;;;;;;2.00;2.00;;;;;;;;6305174;22;45458;-88
2022/08/23 09:20:21;;;;;;;;;3.00;3.00;;;;;;;;6303782;22;45299;-88
2022/08/23 09:22:50;;;;;;;;;8.67;3.67;;;;;;;;6329885;22;45431;-87
2022/08/23 09:25:15;;;;;;;;;5.67;5.00;;;;;;;;6332145;22;46442;-87
2022/08/23 09:27:42;;;;;;;;;2.00;2.00;;;;;;;;6305595;22;46732;-87
2022/08/23 09:30:08;;;;;;;;;4.67;3.33;;;;;;;;6305058;22;45345;-88
2022/08/23 09:32:36;;;;;;;;;1.67;1.67;;;;;;;;6304913;22;45703;-88
2022/08/23 09:35:10;;;;;;;;;1.33;1.33;;;;;;;;6304197;22;47089;-87
2022/08/23 09:37:53;;;;;;;;;3.00;3.00;;;;;;;;6305242;22;45344;-87
2022/08/23 09:40:24;;;;;;;;;2.00;2.00;;;;;;;;6331582;22;45361;-87
2022/08/23 09:43:08;;;;;;;;;2.00;2.00;;;;;;;;6305178;22;45377;-88
2022/08/23 09:45:35;;;;;;;;;2.67;2.67;;;;;;;;6306109;22;48216;-88
2022/08/23 09:48:01;;;;;;;;;3.33;2.00;;;;;;;;6334112;22;45260;-88
2022/08/23 09:50:26;;;;;;;;;2.00;2.00;;;;;;;;6307620;22;45237;-88
2022/08/23 09:53:00;;;;;;;;;2.00;2.00;;;;;;;;6307054;22;45434;-87
2022/08/23 09:55:25;;;;;;;;;2.00;2.00;;;;;;;;6306700;22;47013;-88
2022/08/23 09:57:51;;;;;;;;;1.75;1.50;;;;;;;;6308483;22;45313;-87
2022/08/23 10:00:22;;;;;;;;;4.00;2.67;;;;;;;;6307212;22;45830;-87
2022/08/23 10:02:47;;;;;;;;;2.00;1.00;;;;;;;;6335246;22;45308;-88
2022/08/23 10:05:17;;;;;;;;;2.33;2.33;;;;;;;;6334079;22;46424;-87
2022/08/23 10:07:44;;;;;;;;;1.00;1.00;;;;;;;;6307054;22;45276;-88
2022/08/23 10:10:28;;;;;;;;;2.00;2.00;;;;;;;;6306373;22;45297;-88
2022/08/23 10:12:55;;;;;;;;;1.67;1.00;;;;;;;;6307029;22;45466;-91
2022/08/23 10:15:25;;;;;;;;;1.00;1.00;;;;;;;;6334943;22;45715;-87
2022/08/23 10:18:06;;;;;;;;;2.00;2.00;;;;;;;;6314012;22;46048;-88
2022/08/23 10:20:46;;;;;;;;;3.00;2.33;;;;;;;;6308724;22;45319;-89
2022/08/23 10:23:32;;;;;;;;;4.67;3.00;;;;;;;;6309208;22;45693;-91
2022/08/23 10:25:57;;;;;;;;;2.00;2.00;;;;;;;;6334456;22;45331;-92
2022/08/23 10:31:38;;;;;;;;;2.00;2.00;;;;;;;;6312339;22;45256;-95
2022/08/23 10:34:03;;;;;;;;;1.33;1.33;;;;;;;;6302160;22;45206;-92
2022/08/23 10:37:04;;;;;;;;;1.67;1.67;;;;;;;;6306802;22;47242;-96
2022/08/23 10:39:30;;;;;;;;;1.00;1.00;;;;;;;;6199623;22;45335;-96
2022/08/23 10:42:07;;;;;;;;;2.00;1.00;;;;;;;;6193860;22;45362;-96
2022/08/23 10:44:34;;;;;;;;;2.00;1.00;;;;;;;;6195073;22;44799;-96
2022/08/23 10:47:17;;;;;;;;;2.00;1.67;;;;;;;;6193040;22;47230;-95
2022/08/23 10:49:45;;;;;;;;;2.00;0.00;;;;;;;;6181014;22;45358;-87
2022/08/23 10:52:16;;;;;;;;;1.00;1.00;;;;;;;;6207940;22;45640;-87
2022/08/23 10:55:04;;;;;;;;;1.00;1.00;;;;;;;;6181717;22;45264;-86
2022/08/23 10:57:32;;;;;;;;;1.00;1.00;;;;;;;;6207310;22;45674;-87
2022/08/23 10:59:58;;;;;;;;;0.00;0.00;;;;;;;;6181642;22;45338;-87
2022/08/23 11:02:43;;;;;;;;;0.00;0.00;;;;;;;;6206675;22;45387;-86
2022/08/23 11:05:17;;;;;;;;;1.00;1.00;;;;;;;;6207166;22;45344;-87
2022/08/23 11:07:54;;;;;;;;;0.00;0.00;;;;;;;;6181657;22;46421;-87
2022/08/23 11:10:31;;;;;;;;;0.67;0.67;;;;;;;;6206824;22;45448;-87
2022/08/23 11:12:57;;;;;;;;;0.00;0.00;;;;;;;;6210314;22;45538;-87
2022/08/23 11:15:30;;;;;;;;;0.00;0.00;;;;;;;;6300893;22;45347;-87
2022/08/23 11:17:57;;;;;;;;;2.00;2.00;;;;;;;;6302459;22;45290;-87
2022/08/23 11:20:41;;;;;;;;;0.00;0.00;;;;;;;;6301580;22;45673;-87
2022/08/23 11:23:06;;;;;;;;;0.00;0.00;;;;;;;;6302611;22;45223;-87
2022/08/23 11:25:32;;;;;;;;;1.00;0.00;;;;;;;;6302628;22;45375;-87
2022/08/23 11:28:16;;;;;;;;;0.00;0.00;;;;;;;;6302759;22;45258;-87
2022/08/23 11:30:49;;;;;;;;;1.00;1.00;;;;;;;;6303067;22;45348;-87
2022/08/23 11:33:20;;;;;;;;;0.00;0.00;;;;;;;;6302765;22;45243;-87
2022/08/23 11:36:16;;;;;;;;;0.00;0.00;;;;;;;;6274538;22;45696;-87
2022/08/23 11:38:47;;;;;;;;;3.33;1.00;;;;;;;;6275025;22;46881;-88
2022/08/23 11:41:19;;;;;;;;;2.00;2.00;;;;;;;;6301942;22;45289;-87
2022/08/23 11:43:48;;;;;;;;;2.00;2.00;;;;;;;;6274998;22;45368;-88
2022/08/23 11:46:26;;;;;;;;;1.00;1.00;;;;;;;;6274009;22;45533;-88
2022/08/23 11:49:00;;;;;;;;;0.00;0.00;;;;;;;;6273301;22;47259;-88
2022/08/23 11:51:36;;;;;;;;;0.00;0.00;;;;;;;;6272787;22;45751;-88
2022/08/23 11:54:20;;;;;;;;;0.00;0.00;;;;;;;;6274004;22;45324;-87
2022/08/23 11:56:57;;;;;;;;;0.67;0.67;;;;;;;;6271203;22;45652;-88
2022/08/23 11:59:33;;;;;;;;;0.00;0.00;;;;;;;;6271346;22;47234;-88
2022/08/23 12:02:18;;;;;;;;;0.00;0.00;;;;;;;;6272129;22;45401;-87
2022/08/23 12:04:49;;;;;;;;;0.00;0.00;;;;;;;;6272196;22;45386;-88
2022/08/23 12:07:34;;;;;;;;;1.00;0.00;;;;;;;;6301518;22;45649;-88
2022/08/23 12:09:59;;;;;;;;;0.00;0.00;;;;;;;;6300580;22;46456;-88
2022/08/23 12:12:30;;;;;;;;;0.67;0.67;;;;;;;;6272880;22;45405;-87
2022/08/23 12:14:57;;;;;;;;;0.00;0.00;;;;;;;;6300686;22;45818;-87
2022/08/23 12:17:25;;;;;;;;;1.00;1.00;;;;;;;;6273233;22;45471;-87
2022/08/23 12:19:58;;;;;;;;;0.00;0.00;;;;;;;;6273397;22;47149;-87
2022/08/23 12:22:28;;;;;;;;;0.00;0.00;;;;;;;;6272525;22;45284;-87
2022/08/23 12:24:59;;;;;;;;;1.00;0.33;;;;;;;;6273333;22;45428;-88
2022/08/23 12:27:49;;;;;;;;;0.00;0.00;;;;;;;;6301558;22;45306;-89
2022/08/23 12:30:46;;;;;;;;;0.00;0.00;;;;;;;;6300251;22;46408;-88
2022/08/23 12:33:24;;;;;;;;;0.00;0.00;;;;;;;;6178632;22;45435;-88
2022/08/23 12:36:00;;;;;;;;;0.00;0.00;;;;;;;;6205070;22;45617;-88
2022/08/23 12:38:44;;;;;;;;;0.00;0.00;;;;;;;;6179418;22;45436;-88
2022/08/23 12:41:19;;;;;;;;;0.00;0.00;;;;;;;;6180019;22;48248;-88
2022/08/23 12:44:01;;;;;;;;;1.00;1.00;;;;;;;;6204329;22;46105;-87
2022/08/23 12:46:29;;;;;;;;;0.00;0.00;;;;;;;;6205269;22;45594;-87
2022/08/23 12:48:54;;;;;;;;;0.00;0.00;;;;;;;;6178773;22;45531;-88
2022/08/23 12:51:19;;;;;;;;;0.00;0.00;;;;;;;;6178829;22;46940;-88
2022/08/23 12:53:44;;;;;;;;;0.00;0.00;;;;;;;;6179951;22;46108;-88
2022/08/23 12:56:28;;;;;;;;;1.00;1.00;;;;;;;;6179687;22;45421;-88
2022/08/23 12:58:56;;;;;;;;;0.00;0.00;;;;;;;;6205326;22;45393;-88
2022/08/23 13:01:30;;;;;;;;;0.00;0.00;;;;;;;;6206180;22;46518;-87
2022/08/23 13:04:12;;;;;;;;;0.00;0.00;;;;;;;;6180674;22;45871;-86
2022/08/23 13:06:43;;;;;;;;;0.00;0.00;;;;;;;;6180160;22;45629;-87
2022/08/23 13:09:08;;;;;;;;;0.00;0.00;;;;;;;;6239669;22;45438;-87
2022/08/23 13:11:35;;;;;;;;;2.00;0.00;;;;;;;;6273035;22;46251;-87
2022/08/23 13:14:20;;;;;;;;;0.00;0.00;;;;;;;;6273077;22;45346;-87
2022/08/23 13:16:45;;;;;;;;;0.00;0.00;;;;;;;;6273918;22;45255;-88
2022/08/23 13:19:13;;;;;;;;;0.00;0.00;;;;;;;;6301792;22;45336;-87
2022/08/23 13:21:38;;;;;;;;;0.00;0.00;;;;;;;;6301092;22;45620;-87
2022/08/23 13:24:22;;;;;;;;;0.00;0.00;;;;;;;;6273697;22;45777;-87
2022/08/23 13:26:48;;;;;;;;;0.00;0.00;;;;;;;;6272940;22;45377;-87
2022/08/23 13:29:19;;;;;;;;;0.00;0.00;;;;;;;;6273712;22;45235;-87
2022/08/23 13:31:58;;;;;;;;;0.00;0.00;;;;;;;;6300999;22;45362;-87
2022/08/23 13:34:36;;;;;;;;;0.00;0.00;;;;;;;;6273529;22;45381;-86
2022/08/23 13:37:03;;;;;;;;;0.00;0.00;;;;;;;;6272910;22;45413;-87
2022/08/23 13:39:29;;;;;;;;;0.00;0.00;;;;;;;;6274037;22;45466;-87
2022/08/23 13:41:54;;;;;;;;;0.67;0.00;;;;;;;;6299975;22;46675;-89
2022/08/23 13:44:20;;;;;;;;;0.00;0.00;;;;;;;;6273871;22;45251;-87
2022/08/23 13:46:46;;;;;;;;;0.00;0.00;;;;;;;;6273948;22;45318;-88
2022/08/23 13:49:17;;;;;;;;;0.00;0.00;;;;;;;;6273785;22;45837;-88
2022/08/23 13:52:01;;;;;;;;;0.67;0.00;;;;;;;;6272622;22;47274;-88
2022/08/23 13:54:27;;;;;;;;;0.00;0.00;;;;;;;;6273905;22;45558;-87
2022/08/23 13:56:54;;;;;;;;;1.00;0.00;;;;;;;;6301001;22;45357;-87
2022/08/23 13:59:20;;;;;;;;;0.67;0.00;;;;;;;;6274130;22;45433;-87
2022/08/23 14:01:45;;;;;;;;;0.00;0.00;;;;;;;;6301058;22;45587;-87
2022/08/23 14:04:10;;;;;;;;;0.00;0.00;;;;;;;;6273401;22;45531;-87
2022/08/23 14:06:35;;;;;;;;;0.00;0.00;;;;;;;;6272674;22;45448;-87
2022/08/23 14:09:01;;;;;;;;;0.00;0.00;;;;;;;;6273979;22;45440;-86
2022/08/23 14:11:26;;;;;;;;;0.00;0.00;;;;;;;;6300359;22;46138;-86
2022/08/23 14:13:51;;;;;;;;;0.00;0.00;;;;;;;;6301642;22;45543;-86
2022/08/23 14:16:28;;;;;;;;;0.00;0.00;;;;;;;;6273148;22;45450;-87
2022/08/23 14:18:53;;;;;;;;;0.00;0.00;;;;;;;;6301374;22;45542;-86
2022/08/23 14:21:18;;;;;;;;;0.33;0.33;;;;;;;;6300740;22;45332;-86
2022/08/23 14:23:43;;;;;;;;;0.67;0.67;;;;;;;;6273656;22;45376;-87
2022/08/23 14:26:11;;;;;;;;;0.50;0.00;;;;;;;;6302551;22;45407;-87
2022/08/23 14:28:37;;;;;;;;;0.67;0.67;;;;;;;;6274484;22;45332;-86
2022/08/23 14:31:02;;;;;;;;;0.00;0.00;;;;;;;;6274972;22;46077;-87
2022/08/23 14:33:27;;;;;;;;;0.00;0.00;;;;;;;;6274408;22;45395;-87
2022/08/23 14:35:52;;;;;;;;;0.33;0.00;;;;;;;;6302308;22;45340;-89
2022/08/23 14:38:18;;;;;;;;;1.00;0.00;;;;;;;;6274190;22;45499;-91
2022/08/23 14:40:48;;;;;;;;;0.00;0.00;;;;;;;;6272325;22;47211;-95
2022/08/23 14:43:14;;;;;;;;;0.00;0.00;;;;;;;;6303852;22;45301;-92
2022/08/23 14:45:39;;;;;;;;;0.00;0.00;;;;;;;;6275614;22;45551;-91
2022/08/23 14:48:05;;;;;;;;;0.00;0.00;;;;;;;;6303726;22;45284;-93
2022/08/23 14:50:30;;;;;;;;;0.00;0.00;;;;;;;;6275189;22;47171;-93
2022/08/23 14:52:55;;;;;;;;;0.00;0.00;;;;;;;;6279159;22;45458;-92
2022/08/23 14:55:20;;;;;;;;;0.00;0.00;;;;;;;;6277568;22;45270;-93
2022/08/23 14:57:47;;;;;;;;;0.00;0.00;;;;;;;;6278349;22;45417;-94
2022/08/23 15:00:13;;;;;;;;;0.67;0.00;;;;;;;;6278089;22;47903;-94
2022/08/23 15:02:40;;;;;;;;;1.00;1.00;;;;;;;;6279466;22;45353;-92